sensor_id;sensor_type;location;lat;lon;timestamp;noise_LAeq;noise_LA_min;noise_LA_max;noise_LA01;noise_LA95
69610;Laerm;56816;52.192;4.474;2023-02-10T00:00:08;44.42;40.36;49.03;;
69610;Laerm;56816;52.192;4.474;2023-02-10T00:00:18;44.05;39.67;48.54;;
69610;Laerm;56816;52.192;4.474;2023-02-10T00:00:28;46.74;42.39;50.87;;
69610;Laerm;56816;52.192;4.474;2023-02-10T00:00:39;44.91;40.01;50.93;;
69610;Laerm;56816;52.192;4.474;2023-02-10T00:00:49;41.37;38.36;43.91;;
69610;Laerm;56816;52.192;4.474;2023-02-10T00:01:05;47.37;42.12;52.77;;
69610;Laerm;56816;52.192;4.474;2023-02-10T00:01:17;47.08;39.01;61.10;;
69610;Laerm;56816;52.192;4.474;2023-02-10T00:01:29;49.80;36.54;63.06;;
69610;Laerm;56816;52.192;4.474;2023-02-10T00:01:39;41.23;36.05;45.99;;
69610;Laerm;56816;52.192;4.474;2023-02-10T00:01:49;47.79;43.29;56.32;;
69610;Laerm;56816;52.192;4.474;2023-02-10T00:01:59;48.69;44.36;52.28;;
69610;Laerm;56816;52.192;4.474;2023-02-10T00:02:10;52.36;42.60;58.90;;
69610;Laerm;56816;52.192;4.474;2023-02-10T00:02:20;49.37;41.62;56.94;;
69610;Laerm;56816;52.192;4.474;2023-02-10T00:02:30;46.41;41.89;50.79;;
69610;Laerm;56816;52.192;4.474;2023-02-10T00:02:40;45.75;40.81;53.21;;
69610;Laerm;56816;52.192;4.474;2023-02-10T00:02:51;44.77;38.61;52.72;;
69610;Laerm;56816;52.192;4.474;2023-02-10T00:03:01;42.72;38.34;49.06;;
69610;Laerm;56816;52.192;4.474;2023-02-10T00:03:11;45.79;38.98;51.11;;
69610;Laerm;56816;52.192;4.474;2023-02-10T00:03:21;48.29;41.50;58.61;;
69610;Laerm;56816;52.192;4.474;2023-02-10T00:03:32;46.68;40.08;52.19;;
69610;Laerm;56816;52.192;4.474;2023-02-10T00:03:43;43.79;40.08;48.66;;
69610;Laerm;56816;52.192;4.474;2023-02-10T00:03:53;44.82;40.54;49.21;;
69610;Laerm;56816;52.192;4.474;2023-02-10T00:04:03;46.59;40.63;52.87;;
69610;Laerm;56816;52.192;4.474;2023-02-10T00:04:14;44.50;40.11;49.35;;
69610;Laerm;56816;52.192;4.474;2023-02-10T00:04:24;46.62;42.71;52.90;;
69610;Laerm;56816;52.192;4.474;2023-02-10T00:04:34;45.02;41.98;48.61;;
69610;Laerm;56816;52.192;4.474;2023-02-10T00:04:44;48.98;43.60;54.02;;
69610;Laerm;56816;52.192;4.474;2023-02-10T00:04:55;50.64;46.00;54.90;;
69610;Laerm;56816;52.192;4.474;2023-02-10T00:05:05;53.03;46.62;57.07;;
69610;Laerm;56816;52.192;4.474;2023-02-10T00:05:15;48.82;45.53;53.04;;
69610;Laerm;56816;52.192;4.474;2023-02-10T00:05:25;47.82;44.32;51.46;;
69610;Laerm;56816;52.192;4.474;2023-02-10T00:05:37;48.68;43.38;54.91;;
69610;Laerm;56816;52.192;4.474;2023-02-10T00:05:47;50.53;46.32;56.85;;
69610;Laerm;56816;52.192;4.474;2023-02-10T00:05:57;45.31;40.66;48.66;;
69610;Laerm;56816;52.192;4.474;2023-02-10T00:06:08;41.68;37.65;45.96;;
69610;Laerm;56816;52.192;4.474;2023-02-10T00:06:19;47.14;39.89;54.30;;
69610;Laerm;56816;52.192;4.474;2023-02-10T00:06:30;48.17;44.15;53.61;;
69610;Laerm;56816;52.192;4.474;2023-02-10T00:06:40;47.54;42.63;52.60;;
69610;Laerm;56816;52.192;4.474;2023-02-10T00:06:51;47.22;41.89;52.84;;
69610;Laerm;56816;52.192;4.474;2023-02-10T00:07:01;47.83;43.49;52.84;;
69610;Laerm;56816;52.192;4.474;2023-02-10T00:07:11;52.27;47.82;56.81;;
69610;Laerm;56816;52.192;4.474;2023-02-10T00:07:21;47.62;41.47;55.80;;
69610;Laerm;56816;52.192;4.474;2023-02-10T00:07:32;44.67;40.52;50.65;;
69610;Laerm;56816;52.192;4.474;2023-02-10T00:07:42;43.55;40.84;48.56;;
69610;Laerm;56816;52.192;4.474;2023-02-10T00:07:52;45.44;41.07;50.51;;
69610;Laerm;56816;52.192;4.474;2023-02-10T00:08:02;45.20;40.46;51.01;;
69610;Laerm;56816;52.192;4.474;2023-02-10T00:08:13;54.47;44.05;61.52;;
69610;Laerm;56816;52.192;4.474;2023-02-10T00:08:23;44.91;40.53;52.80;;
69610;Laerm;56816;52.192;4.474;2023-02-10T00:08:33;41.62;39.11;45.00;;
69610;Laerm;56816;52.192;4.474;2023-02-10T00:08:47;43.47;40.03;48.50;;
69610;Laerm;56816;52.192;4.474;2023-02-10T00:08:59;49.47;43.00;57.48;;
69610;Laerm;56816;52.192;4.474;2023-02-10T00:09:11;47.70;41.47;54.81;;
69610;Laerm;56816;52.192;4.474;2023-02-10T00:09:21;45.93;38.51;51.99;;
69610;Laerm;56816;52.192;4.474;2023-02-10T00:09:32;38.86;36.50;41.50;;
69610;Laerm;56816;52.192;4.474;2023-02-10T00:09:42;38.46;36.08;40.16;;
69610;Laerm;56816;52.192;4.474;2023-02-10T00:09:52;41.28;36.76;45.49;;
69610;Laerm;56816;52.192;4.474;2023-02-10T00:10:02;41.69;37.71;48.48;;
69610;Laerm;56816;52.192;4.474;2023-02-10T00:10:13;42.81;38.57;49.11;;
69610;Laerm;56816;52.192;4.474;2023-02-10T00:10:23;45.46;40.64;49.35;;
69610;Laerm;56816;52.192;4.474;2023-02-10T00:10:33;44.87;40.60;49.86;;
69610;Laerm;56816;52.192;4.474;2023-02-10T00:10:43;45.98;41.82;51.27;;
69610;Laerm;56816;52.192;4.474;2023-02-10T00:10:57;44.61;41.46;48.28;;
69610;Laerm;56816;52.192;4.474;2023-02-10T00:11:09;48.68;41.59;55.15;;
69610;Laerm;56816;52.192;4.474;2023-02-10T00:11:20;49.34;45.43;53.98;;
69610;Laerm;56816;52.192;4.474;2023-02-10T00:11:50;45.45;38.11;53.82;;
69610;Laerm;56816;52.192;4.474;2023-02-10T00:12:06;45.71;41.35;51.43;;
69610;Laerm;56816;52.192;4.474;2023-02-10T00:12:18;46.17;41.78;51.97;;
69610;Laerm;56816;52.192;4.474;2023-02-10T00:12:28;51.07;45.50;55.48;;
69610;Laerm;56816;52.192;4.474;2023-02-10T00:12:38;49.70;45.57;53.14;;
69610;Laerm;56816;52.192;4.474;2023-02-10T00:12:49;52.34;47.31;57.28;;
69610;Laerm;56816;52.192;4.474;2023-02-10T00:13:09;49.38;44.55;53.81;;
69610;Laerm;56816;52.192;4.474;2023-02-10T00:13:22;45.01;39.71;51.70;;
69610;Laerm;56816;52.192;4.474;2023-02-10T00:13:32;43.11;38.90;50.53;;
69610;Laerm;56816;52.192;4.474;2023-02-10T00:13:43;40.09;37.33;45.33;;
69610;Laerm;56816;52.192;4.474;2023-02-10T00:13:53;41.31;37.41;45.81;;
69610;Laerm;56816;52.192;4.474;2023-02-10T00:14:03;44.90;39.86;49.97;;
69610;Laerm;56816;52.192;4.474;2023-02-10T00:14:15;44.65;41.08;48.20;;
69610;Laerm;56816;52.192;4.474;2023-02-10T00:14:26;44.16;40.45;47.63;;
69610;Laerm;56816;52.192;4.474;2023-02-10T00:14:37;48.08;43.11;54.53;;
69610;Laerm;56816;52.192;4.474;2023-02-10T00:14:47;45.53;41.33;49.89;;
69610;Laerm;56816;52.192;4.474;2023-02-10T00:14:58;47.67;42.90;55.14;;
69610;Laerm;56816;52.192;4.474;2023-02-10T00:15:08;45.81;40.78;54.22;;
69610;Laerm;56816;52.192;4.474;2023-02-10T00:15:18;46.99;43.69;51.49;;
69610;Laerm;56816;52.192;4.474;2023-02-10T00:15:29;47.76;43.58;51.97;;
69610;Laerm;56816;52.192;4.474;2023-02-10T00:15:39;49.39;45.29;52.69;;
69610;Laerm;56816;52.192;4.474;2023-02-10T00:15:49;48.80;45.35;52.85;;
69610;Laerm;56816;52.192;4.474;2023-02-10T00:16:00;51.69;46.08;58.93;;
69610;Laerm;56816;52.192;4.474;2023-02-10T00:16:11;50.40;44.26;55.81;;
69610;Laerm;56816;52.192;4.474;2023-02-10T00:16:22;47.38;43.42;51.06;;
69610;Laerm;56816;52.192;4.474;2023-02-10T00:16:32;45.86;41.25;50.65;;
69610;Laerm;56816;52.192;4.474;2023-02-10T00:16:42;47.49;40.90;56.25;;
69610;Laerm;56816;52.192;4.474;2023-02-10T00:16:53;43.60;40.06;49.71;;
69610;Laerm;56816;52.192;4.474;2023-02-10T00:17:03;44.46;39.44;50.81;;
69610;Laerm;56816;52.192;4.474;2023-02-10T00:17:14;41.59;37.22;47.48;;
69610;Laerm;56816;52.192;4.474;2023-02-10T00:17:27;39.23;37.15;42.18;;
69610;Laerm;56816;52.192;4.474;2023-02-10T00:17:37;39.34;37.22;41.44;;
69610;Laerm;56816;52.192;4.474;2023-02-10T00:17:47;40.34;37.69;45.74;;
69610;Laerm;56816;52.192;4.474;2023-02-10T00:17:57;43.60;39.22;51.11;;
69610;Laerm;56816;52.192;4.474;2023-02-10T00:18:08;46.82;39.82;58.75;;
69610;Laerm;56816;52.192;4.474;2023-02-10T00:18:18;44.04;40.13;49.02;;
69610;Laerm;56816;52.192;4.474;2023-02-10T00:18:28;46.17;41.59;49.85;;
69610;Laerm;56816;52.192;4.474;2023-02-10T00:18:39;47.89;42.30;54.55;;
69610;Laerm;56816;52.192;4.474;2023-02-10T00:18:49;49.17;44.04;53.88;;
69610;Laerm;56816;52.192;4.474;2023-02-10T00:18:59;48.80;42.78;53.84;;
69610;Laerm;56816;52.192;4.474;2023-02-10T00:19:09;49.17;44.18;54.70;;
69610;Laerm;56816;52.192;4.474;2023-02-10T00:19:20;44.22;39.45;50.65;;
69610;Laerm;56816;52.192;4.474;2023-02-10T00:19:30;44.70;40.81;51.02;;
69610;Laerm;56816;52.192;4.474;2023-02-10T00:19:41;45.51;40.83;52.14;;
69610;Laerm;56816;52.192;4.474;2023-02-10T00:19:51;43.98;40.12;50.56;;
69610;Laerm;56816;52.192;4.474;2023-02-10T00:20:01;43.38;38.99;50.39;;
69610;Laerm;56816;52.192;4.474;2023-02-10T00:20:11;46.01;40.59;53.35;;
69610;Laerm;56816;52.192;4.474;2023-02-10T00:20:21;47.33;40.46;54.03;;
69610;Laerm;56816;52.192;4.474;2023-02-10T00:20:32;41.73;37.71;47.90;;
69610;Laerm;56816;52.192;4.474;2023-02-10T00:20:42;42.83;37.40;47.75;;
69610;Laerm;56816;52.192;4.474;2023-02-10T00:20:52;40.40;37.25;45.20;;
69610;Laerm;56816;52.192;4.474;2023-02-10T00:21:16;46.20;40.25;53.66;;
69610;Laerm;56816;52.192;4.474;2023-02-10T00:21:26;45.15;40.75;50.20;;
69610;Laerm;56816;52.192;4.474;2023-02-10T00:21:36;53.48;44.05;68.43;;
69610;Laerm;56816;52.192;4.474;2023-02-10T00:21:47;46.14;40.51;52.80;;
69610;Laerm;56816;52.192;4.474;2023-02-10T00:21:57;46.93;42.90;51.86;;
69610;Laerm;56816;52.192;4.474;2023-02-10T00:22:07;49.84;44.73;54.77;;
69610;Laerm;56816;52.192;4.474;2023-02-10T00:22:18;46.17;41.72;50.17;;
69610;Laerm;56816;52.192;4.474;2023-02-10T00:22:28;45.52;40.61;52.58;;
69610;Laerm;56816;52.192;4.474;2023-02-10T00:22:38;42.30;39.84;46.17;;
69610;Laerm;56816;52.192;4.474;2023-02-10T00:22:48;40.83;38.13;44.84;;
69610;Laerm;56816;52.192;4.474;2023-02-10T00:22:58;40.06;37.49;44.59;;
69610;Laerm;56816;52.192;4.474;2023-02-10T00:23:09;39.15;36.25;45.09;;
69610;Laerm;56816;52.192;4.474;2023-02-10T00:23:19;40.60;37.72;43.55;;
69610;Laerm;56816;52.192;4.474;2023-02-10T00:23:29;44.59;40.38;50.73;;
69610;Laerm;56816;52.192;4.474;2023-02-10T00:23:39;46.51;43.54;50.31;;
69610;Laerm;56816;52.192;4.474;2023-02-10T00:23:50;46.78;42.40;50.19;;
69610;Laerm;56816;52.192;4.474;2023-02-10T00:24:00;48.13;43.91;53.35;;
69610;Laerm;56816;52.192;4.474;2023-02-10T00:24:10;44.89;41.51;48.17;;
69610;Laerm;56816;52.192;4.474;2023-02-10T00:24:21;44.71;41.28;49.34;;
69610;Laerm;56816;52.192;4.474;2023-02-10T00:24:31;43.96;40.25;49.63;;
69610;Laerm;56816;52.192;4.474;2023-02-10T00:24:42;43.88;40.10;47.82;;
69610;Laerm;56816;52.192;4.474;2023-02-10T00:24:52;46.60;42.78;49.94;;
69610;Laerm;56816;52.192;4.474;2023-02-10T00:25:02;49.46;41.46;56.41;;
69610;Laerm;56816;52.192;4.474;2023-02-10T00:25:12;45.95;41.63;50.22;;
69610;Laerm;56816;52.192;4.474;2023-02-10T00:25:23;46.61;43.05;49.45;;
69610;Laerm;56816;52.192;4.474;2023-02-10T00:25:35;48.03;44.55;52.75;;
69610;Laerm;56816;52.192;4.474;2023-02-10T00:25:46;51.91;46.40;63.88;;
69610;Laerm;56816;52.192;4.474;2023-02-10T00:25:56;50.31;46.31;54.09;;
69610;Laerm;56816;52.192;4.474;2023-02-10T00:26:07;48.26;44.86;52.62;;
69610;Laerm;56816;52.192;4.474;2023-02-10T00:26:19;47.29;44.32;50.46;;
69610;Laerm;56816;52.192;4.474;2023-02-10T00:26:30;48.18;42.85;54.55;;
69610;Laerm;56816;52.192;4.474;2023-02-10T00:26:40;54.35;46.47;61.57;;
69610;Laerm;56816;52.192;4.474;2023-02-10T00:26:50;50.47;41.67;60.83;;
69610;Laerm;56816;52.192;4.474;2023-02-10T00:27:01;43.40;40.54;48.13;;
69610;Laerm;56816;52.192;4.474;2023-02-10T00:27:11;45.22;39.50;51.92;;
69610;Laerm;56816;52.192;4.474;2023-02-10T00:27:21;42.54;38.49;47.06;;
69610;Laerm;56816;52.192;4.474;2023-02-10T00:27:34;45.43;40.14;52.72;;
69610;Laerm;56816;52.192;4.474;2023-02-10T00:27:44;42.85;38.38;46.80;;
69610;Laerm;56816;52.192;4.474;2023-02-10T00:27:54;41.48;37.15;47.20;;
69610;Laerm;56816;52.192;4.474;2023-02-10T00:28:04;41.80;37.17;46.46;;
69610;Laerm;56816;52.192;4.474;2023-02-10T00:28:15;43.20;40.29;47.30;;
69610;Laerm;56816;52.192;4.474;2023-02-10T00:28:25;45.82;41.31;51.26;;
69610;Laerm;56816;52.192;4.474;2023-02-10T00:28:35;49.34;42.60;57.76;;
69610;Laerm;56816;52.192;4.474;2023-02-10T00:28:45;51.58;45.02;55.92;;
69610;Laerm;56816;52.192;4.474;2023-02-10T00:28:56;53.89;45.71;62.65;;
69610;Laerm;56816;52.192;4.474;2023-02-10T00:29:06;52.52;46.09;58.88;;
69610;Laerm;56816;52.192;4.474;2023-02-10T00:29:16;48.33;42.95;52.72;;
69610;Laerm;56816;52.192;4.474;2023-02-10T00:29:26;47.86;42.79;53.62;;
69610;Laerm;56816;52.192;4.474;2023-02-10T00:29:37;49.22;43.40;53.73;;
69610;Laerm;56816;52.192;4.474;2023-02-10T00:29:47;48.16;41.92;55.95;;
69610;Laerm;56816;52.192;4.474;2023-02-10T00:29:59;46.37;39.87;51.97;;
69610;Laerm;56816;52.192;4.474;2023-02-10T00:30:09;42.75;38.01;46.87;;
69610;Laerm;56816;52.192;4.474;2023-02-10T00:30:20;42.30;38.60;46.96;;
69610;Laerm;56816;52.192;4.474;2023-02-10T00:30:30;43.40;39.00;53.88;;
69610;Laerm;56816;52.192;4.474;2023-02-10T00:30:40;45.52;39.02;55.22;;
69610;Laerm;56816;52.192;4.474;2023-02-10T00:30:51;42.70;38.56;50.24;;
69610;Laerm;56816;52.192;4.474;2023-02-10T00:31:05;41.72;38.89;46.67;;
69610;Laerm;56816;52.192;4.474;2023-02-10T00:31:16;50.16;42.61;65.75;;
69610;Laerm;56816;52.192;4.474;2023-02-10T00:31:29;46.84;42.47;52.19;;
69610;Laerm;56816;52.192;4.474;2023-02-10T00:31:39;48.97;42.49;52.72;;
69610;Laerm;56816;52.192;4.474;2023-02-10T00:31:50;53.36;46.27;57.55;;
69610;Laerm;56816;52.192;4.474;2023-02-10T00:32:00;48.89;44.59;54.50;;
69610;Laerm;56816;52.192;4.474;2023-02-10T00:32:11;46.86;42.18;55.00;;
69610;Laerm;56816;52.192;4.474;2023-02-10T00:32:21;47.89;42.61;52.88;;
69610;Laerm;56816;52.192;4.474;2023-02-10T00:32:31;49.12;42.32;55.95;;
69610;Laerm;56816;52.192;4.474;2023-02-10T00:32:41;48.13;41.55;54.21;;
69610;Laerm;56816;52.192;4.474;2023-02-10T00:32:52;44.99;40.69;50.74;;
69610;Laerm;56816;52.192;4.474;2023-02-10T00:33:02;43.81;38.12;49.20;;
69610;Laerm;56816;52.192;4.474;2023-02-10T00:33:15;44.65;38.97;54.01;;
69610;Laerm;56816;52.192;4.474;2023-02-10T00:33:25;51.09;43.02;66.07;;
69610;Laerm;56816;52.192;4.474;2023-02-10T00:33:36;46.31;42.73;51.02;;
69610;Laerm;56816;52.192;4.474;2023-02-10T00:33:46;47.30;42.65;54.97;;
69610;Laerm;56816;52.192;4.474;2023-02-10T00:33:56;47.46;43.49;51.45;;
69610;Laerm;56816;52.192;4.474;2023-02-10T00:34:08;44.21;39.06;48.42;;
69610;Laerm;56816;52.192;4.474;2023-02-10T00:34:19;40.25;37.71;43.18;;
69610;Laerm;56816;52.192;4.474;2023-02-10T00:34:30;37.95;35.92;40.78;;
69610;Laerm;56816;52.192;4.474;2023-02-10T00:34:40;39.77;36.90;52.15;;
69610;Laerm;56816;52.192;4.474;2023-02-10T00:34:50;38.66;36.19;42.92;;
69610;Laerm;56816;52.192;4.474;2023-02-10T00:35:00;38.19;36.01;40.31;;
69610;Laerm;56816;52.192;4.474;2023-02-10T00:35:10;38.65;35.74;40.70;;
69610;Laerm;56816;52.192;4.474;2023-02-10T00:35:21;43.50;37.37;48.95;;
69610;Laerm;56816;52.192;4.474;2023-02-10T00:35:31;45.20;40.20;49.98;;
69610;Laerm;56816;52.192;4.474;2023-02-10T00:35:41;47.69;42.72;53.84;;
69610;Laerm;56816;52.192;4.474;2023-02-10T00:35:51;49.14;45.26;53.84;;
69610;Laerm;56816;52.192;4.474;2023-02-10T00:36:03;51.20;46.67;56.23;;
69610;Laerm;56816;52.192;4.474;2023-02-10T00:36:13;51.86;44.15;59.16;;
69610;Laerm;56816;52.192;4.474;2023-02-10T00:36:24;47.32;44.02;52.11;;
69610;Laerm;56816;52.192;4.474;2023-02-10T00:36:34;48.26;44.37;53.37;;
69610;Laerm;56816;52.192;4.474;2023-02-10T00:36:45;47.35;43.51;52.62;;
69610;Laerm;56816;52.192;4.474;2023-02-10T00:36:55;46.66;42.90;52.00;;
69610;Laerm;56816;52.192;4.474;2023-02-10T00:37:05;46.92;40.78;53.90;;
69610;Laerm;56816;52.192;4.474;2023-02-10T00:37:16;45.27;40.51;50.85;;
69610;Laerm;56816;52.192;4.474;2023-02-10T00:37:26;51.75;43.61;61.37;;
69610;Laerm;56816;52.192;4.474;2023-02-10T00:37:36;57.57;47.90;63.54;;
69610;Laerm;56816;52.192;4.474;2023-02-10T00:37:46;52.14;42.48;58.21;;
69610;Laerm;56816;52.192;4.474;2023-02-10T00:37:57;45.11;41.58;51.02;;
69610;Laerm;56816;52.192;4.474;2023-02-10T00:38:07;49.04;44.92;54.48;;
69610;Laerm;56816;52.192;4.474;2023-02-10T00:38:17;51.35;44.03;57.27;;
69610;Laerm;56816;52.192;4.474;2023-02-10T00:38:27;51.34;45.95;57.95;;
69610;Laerm;56816;52.192;4.474;2023-02-10T00:38:38;49.29;43.95;57.08;;
69610;Laerm;56816;52.192;4.474;2023-02-10T00:38:48;45.82;42.61;48.63;;
69610;Laerm;56816;52.192;4.474;2023-02-10T00:38:59;45.33;41.18;52.13;;
69610;Laerm;56816;52.192;4.474;2023-02-10T00:39:13;46.95;41.84;52.76;;
69610;Laerm;56816;52.192;4.474;2023-02-10T00:39:23;47.88;44.53;51.93;;
69610;Laerm;56816;52.192;4.474;2023-02-10T00:39:33;53.83;44.17;59.91;;
69610;Laerm;56816;52.192;4.474;2023-02-10T00:39:44;52.54;46.16;59.58;;
69610;Laerm;56816;52.192;4.474;2023-02-10T00:39:55;46.77;41.17;52.39;;
69610;Laerm;56816;52.192;4.474;2023-02-10T00:40:06;55.63;42.82;67.23;;
69610;Laerm;56816;52.192;4.474;2023-02-10T00:40:17;48.95;43.23;57.07;;
69610;Laerm;56816;52.192;4.474;2023-02-10T00:40:27;49.01;43.95;55.69;;
69610;Laerm;56816;52.192;4.474;2023-02-10T00:40:37;55.86;46.39;61.44;;
69610;Laerm;56816;52.192;4.474;2023-02-10T00:40:47;44.20;39.70;50.67;;
69610;Laerm;56816;52.192;4.474;2023-02-10T00:41:04;44.03;39.91;48.95;;
69610;Laerm;56816;52.192;4.474;2023-02-10T00:41:15;42.43;38.27;50.74;;
69610;Laerm;56816;52.192;4.474;2023-02-10T00:41:25;40.84;38.19;43.71;;
69610;Laerm;56816;52.192;4.474;2023-02-10T00:41:36;44.11;40.27;48.17;;
69610;Laerm;56816;52.192;4.474;2023-02-10T00:41:47;43.41;40.11;48.62;;
69610;Laerm;56816;52.192;4.474;2023-02-10T00:41:57;46.03;42.65;49.54;;
69610;Laerm;56816;52.192;4.474;2023-02-10T00:42:07;46.66;43.12;54.37;;
69610;Laerm;56816;52.192;4.474;2023-02-10T00:42:18;46.69;42.12;52.63;;
69610;Laerm;56816;52.192;4.474;2023-02-10T00:42:28;46.90;42.60;52.27;;
69610;Laerm;56816;52.192;4.474;2023-02-10T00:42:38;47.90;42.59;54.04;;
69610;Laerm;56816;52.192;4.474;2023-02-10T00:42:49;55.91;42.53;65.48;;
69610;Laerm;56816;52.192;4.474;2023-02-10T00:42:59;44.70;40.90;49.20;;
69610;Laerm;56816;52.192;4.474;2023-02-10T00:43:09;41.96;39.30;45.11;;
69610;Laerm;56816;52.192;4.474;2023-02-10T00:43:19;42.72;39.05;49.60;;
69610;Laerm;56816;52.192;4.474;2023-02-10T00:43:30;43.01;40.19;46.51;;
69610;Laerm;56816;52.192;4.474;2023-02-10T00:43:40;43.87;40.71;48.98;;
69610;Laerm;56816;52.192;4.474;2023-02-10T00:43:52;44.88;40.38;54.99;;
69610;Laerm;56816;52.192;4.474;2023-02-10T00:44:02;47.14;44.01;50.75;;
69610;Laerm;56816;52.192;4.474;2023-02-10T00:44:12;45.43;41.52;51.15;;
69610;Laerm;56816;52.192;4.474;2023-02-10T00:44:23;47.19;42.91;51.56;;
69610;Laerm;56816;52.192;4.474;2023-02-10T00:44:33;47.55;43.28;51.69;;
69610;Laerm;56816;52.192;4.474;2023-02-10T00:44:43;47.54;42.76;52.84;;
69610;Laerm;56816;52.192;4.474;2023-02-10T00:44:53;45.80;41.31;49.99;;
69610;Laerm;56816;52.192;4.474;2023-02-10T00:45:05;43.23;40.66;47.82;;
69610;Laerm;56816;52.192;4.474;2023-02-10T00:45:15;42.40;39.77;47.65;;
69610;Laerm;56816;52.192;4.474;2023-02-10T00:45:25;42.20;39.43;44.84;;
69610;Laerm;56816;52.192;4.474;2023-02-10T00:45:35;42.56;40.04;45.04;;
69610;Laerm;56816;52.192;4.474;2023-02-10T00:45:46;44.39;39.97;50.19;;
69610;Laerm;56816;52.192;4.474;2023-02-10T00:45:56;42.68;39.75;47.98;;
69610;Laerm;56816;52.192;4.474;2023-02-10T00:46:06;43.94;39.55;47.54;;
69610;Laerm;56816;52.192;4.474;2023-02-10T00:46:17;43.72;39.95;49.42;;
69610;Laerm;56816;52.192;4.474;2023-02-10T00:46:28;43.94;40.19;49.50;;
69610;Laerm;56816;52.192;4.474;2023-02-10T00:46:38;45.36;41.31;49.29;;
69610;Laerm;56816;52.192;4.474;2023-02-10T00:46:48;46.42;42.02;52.89;;
69610;Laerm;56816;52.192;4.474;2023-02-10T00:46:58;45.44;41.78;51.24;;
69610;Laerm;56816;52.192;4.474;2023-02-10T00:47:09;46.23;42.18;50.72;;
69610;Laerm;56816;52.192;4.474;2023-02-10T00:47:19;46.61;43.19;50.99;;
69610;Laerm;56816;52.192;4.474;2023-02-10T00:47:29;49.21;44.66;56.04;;
69610;Laerm;56816;52.192;4.474;2023-02-10T00:47:39;46.91;43.55;52.37;;
69610;Laerm;56816;52.192;4.474;2023-02-10T00:47:50;44.66;42.84;48.49;;
69610;Laerm;56816;52.192;4.474;2023-02-10T00:48:00;45.28;41.73;49.98;;
69610;Laerm;56816;52.192;4.474;2023-02-10T00:48:11;46.43;42.48;51.41;;
69610;Laerm;56816;52.192;4.474;2023-02-10T00:48:21;51.89;44.31;57.96;;
69610;Laerm;56816;52.192;4.474;2023-02-10T00:48:31;48.45;42.99;54.56;;
69610;Laerm;56816;52.192;4.474;2023-02-10T00:48:42;45.49;42.03;51.15;;
69610;Laerm;56816;52.192;4.474;2023-02-10T00:48:52;47.02;42.35;53.92;;
69610;Laerm;56816;52.192;4.474;2023-02-10T00:49:02;47.03;43.08;52.91;;
69610;Laerm;56816;52.192;4.474;2023-02-10T00:49:13;49.47;43.96;54.16;;
69610;Laerm;56816;52.192;4.474;2023-02-10T00:49:23;47.20;43.28;53.19;;
69610;Laerm;56816;52.192;4.474;2023-02-10T00:49:33;50.38;43.30;56.97;;
69610;Laerm;56816;52.192;4.474;2023-02-10T00:49:43;49.60;45.00;53.52;;
69610;Laerm;56816;52.192;4.474;2023-02-10T00:49:54;51.20;47.29;56.13;;
69610;Laerm;56816;52.192;4.474;2023-02-10T00:50:04;50.92;47.66;54.45;;
69610;Laerm;56816;52.192;4.474;2023-02-10T00:50:15;55.82;48.20;61.80;;
69610;Laerm;56816;52.192;4.474;2023-02-10T00:50:25;48.50;44.16;53.53;;
69610;Laerm;56816;52.192;4.474;2023-02-10T00:50:35;45.10;40.91;49.59;;
69610;Laerm;56816;52.192;4.474;2023-02-10T00:50:45;44.64;41.87;49.94;;
69610;Laerm;56816;52.192;4.474;2023-02-10T00:50:56;46.09;42.46;50.33;;
69610;Laerm;56816;52.192;4.474;2023-02-10T00:51:06;47.03;43.85;50.74;;
69610;Laerm;56816;52.192;4.474;2023-02-10T00:51:16;46.75;43.66;50.00;;
69610;Laerm;56816;52.192;4.474;2023-02-10T00:51:27;51.83;45.28;57.92;;
69610;Laerm;56816;52.192;4.474;2023-02-10T00:51:37;47.71;42.64;53.55;;
69610;Laerm;56816;52.192;4.474;2023-02-10T00:51:47;43.87;39.43;48.58;;
69610;Laerm;56816;52.192;4.474;2023-02-10T00:51:58;43.78;41.19;47.01;;
69610;Laerm;56816;52.192;4.474;2023-02-10T00:52:08;43.40;39.79;46.99;;
69610;Laerm;56816;52.192;4.474;2023-02-10T00:52:18;42.33;39.76;46.31;;
69610;Laerm;56816;52.192;4.474;2023-02-10T00:52:28;42.15;39.11;48.84;;
69610;Laerm;56816;52.192;4.474;2023-02-10T00:52:39;43.09;39.60;49.81;;
69610;Laerm;56816;52.192;4.474;2023-02-10T00:52:49;46.29;40.95;54.89;;
69610;Laerm;56816;52.192;4.474;2023-02-10T00:52:59;43.85;40.49;49.52;;
69610;Laerm;56816;52.192;4.474;2023-02-10T00:53:09;42.02;38.84;46.25;;
69610;Laerm;56816;52.192;4.474;2023-02-10T00:53:19;44.38;40.74;50.39;;
69610;Laerm;56816;52.192;4.474;2023-02-10T00:53:30;48.61;42.84;51.38;;
69610;Laerm;56816;52.192;4.474;2023-02-10T00:53:40;51.14;43.63;57.50;;
69610;Laerm;56816;52.192;4.474;2023-02-10T00:53:51;50.93;46.37;58.11;;
69610;Laerm;56816;52.192;4.474;2023-02-10T00:54:02;48.31;42.15;53.37;;
69610;Laerm;56816;52.192;4.474;2023-02-10T00:54:13;54.56;44.18;61.99;;
69610;Laerm;56816;52.192;4.474;2023-02-10T00:54:23;49.47;43.34;54.69;;
69610;Laerm;56816;52.192;4.474;2023-02-10T00:54:33;50.76;40.82;58.59;;
69610;Laerm;56816;52.192;4.474;2023-02-10T00:54:43;42.10;39.31;45.28;;
69610;Laerm;56816;52.192;4.474;2023-02-10T00:54:54;41.46;38.27;44.27;;
69610;Laerm;56816;52.192;4.474;2023-02-10T00:55:04;44.69;39.36;50.73;;
69610;Laerm;56816;52.192;4.474;2023-02-10T00:55:14;47.21;41.72;53.55;;
69610;Laerm;56816;52.192;4.474;2023-02-10T00:55:25;44.59;39.23;50.01;;
69610;Laerm;56816;52.192;4.474;2023-02-10T00:55:35;54.01;37.85;68.80;;
69610;Laerm;56816;52.192;4.474;2023-02-10T00:55:45;38.52;36.58;40.45;;
69610;Laerm;56816;52.192;4.474;2023-02-10T00:55:55;41.14;37.85;44.90;;
69610;Laerm;56816;52.192;4.474;2023-02-10T00:56:06;42.34;39.10;48.80;;
69610;Laerm;56816;52.192;4.474;2023-02-10T00:56:17;46.48;41.82;52.96;;
69610;Laerm;56816;52.192;4.474;2023-02-10T00:56:28;48.09;42.84;56.03;;
69610;Laerm;56816;52.192;4.474;2023-02-10T00:56:38;47.73;43.74;52.57;;
69610;Laerm;56816;52.192;4.474;2023-02-10T00:56:49;46.42;42.26;51.73;;
69610;Laerm;56816;52.192;4.474;2023-02-10T00:56:59;41.75;38.09;49.54;;
69610;Laerm;56816;52.192;4.474;2023-02-10T00:57:10;38.50;35.78;42.41;;
69610;Laerm;56816;52.192;4.474;2023-02-10T00:57:20;38.20;36.04;40.03;;
69610;Laerm;56816;52.192;4.474;2023-02-10T00:57:30;38.45;36.36;41.89;;
69610;Laerm;56816;52.192;4.474;2023-02-10T00:57:41;38.74;36.40;40.91;;
69610;Laerm;56816;52.192;4.474;2023-02-10T00:57:51;37.97;35.69;44.43;;
69610;Laerm;56816;52.192;4.474;2023-02-10T00:58:01;41.56;36.30;49.27;;
69610;Laerm;56816;52.192;4.474;2023-02-10T00:58:11;53.91;36.54;66.07;;
69610;Laerm;56816;52.192;4.474;2023-02-10T00:58:21;50.07;38.49;66.48;;
69610;Laerm;56816;52.192;4.474;2023-02-10T00:58:32;40.71;38.23;43.39;;
69610;Laerm;56816;52.192;4.474;2023-02-10T00:58:42;42.25;39.69;44.69;;
69610;Laerm;56816;52.192;4.474;2023-02-10T00:58:52;44.52;40.13;47.55;;
69610;Laerm;56816;52.192;4.474;2023-02-10T00:59:03;47.16;39.29;56.85;;
69610;Laerm;56816;52.192;4.474;2023-02-10T00:59:13;45.88;41.31;52.15;;
69610;Laerm;56816;52.192;4.474;2023-02-10T00:59:23;50.13;45.41;54.40;;
69610;Laerm;56816;52.192;4.474;2023-02-10T00:59:33;52.24;47.63;58.58;;
69610;Laerm;56816;52.192;4.474;2023-02-10T00:59:43;50.39;45.24;55.72;;